Time;durP1;ratioP1;P1;durP2;ratioP2;P2;SDS_P1;SDS_P2;PMS_P1;PMS_P2;Temp;Humidity;BMP_temperature;BMP_pressure;BME280_temperature;BME280_humidity;BME280_pressure;Samples;Min_cycle;Max_cycle;Signal;HPM_P1;HPM_P2
2023/06/09 00:01:26;;;;;;;;;;;;;;;15.71;64.64;99706.53;5044229;28;20410;-72
2023/06/09 00:03:55;;;;;;;;;;;;;;;15.65;64.76;99710.53;5029764;28;19931;-71
2023/06/09 00:06:24;;;;;;;;;;;;;;;15.54;65.24;99706.38;5008561;28;19954;-72
2023/06/09 00:08:49;;;;;;;;;;;;;;;15.47;65.67;99709.56;5045653;28;20307;-72
2023/06/09 00:11:16;;;;;;;;;;;;;;;15.43;65.96;99705.78;5044701;28;19931;-71
2023/06/09 00:13:42;;;;;;;;;;;;;;;15.36;65.94;99700.72;5013998;28;20377;-72
2023/06/09 00:16:07;;;;;;;;;;;;;;;15.31;66.62;99704.38;5026999;28;19947;-72
2023/06/09 00:18:36;;;;;;;;;;;;;;;15.25;66.79;99696.53;5044339;28;20320;-73
2023/06/09 00:21:03;;;;;;;;;;;;;;;15.17;66.97;99704.41;5042007;28;19971;-72
2023/06/09 00:23:29;;;;;;;;;;;;;;;15.12;67.66;99706.47;5049933;28;20028;-70
2023/06/09 00:25:55;;;;;;;;;;;;;;;15.06;67.78;99711.25;5041835;28;20027;-72
2023/06/09 00:28:21;;;;;;;;;;;;;;;14.99;68.47;99710.88;5044811;28;20415;-72
2023/06/09 00:30:48;;;;;;;;;;;;;;;14.92;69.06;99704.94;5025131;28;19924;-72
2023/06/09 00:33:14;;;;;;;;;;;;;;;14.88;69.19;99713.81;5040596;28;19928;-72
2023/06/09 00:35:40;;;;;;;;;;;;;;;14.83;69.20;99708.44;5043462;28;19932;-70
2023/06/09 00:38:07;;;;;;;;;;;;;;;14.81;69.34;99705.13;5045397;28;19956;-70
2023/06/09 00:40:33;;;;;;;;;;;;;;;14.78;69.99;99708.50;5035508;28;19970;-70
2023/06/09 00:42:59;;;;;;;;;;;;;;;14.75;70.18;99703.63;5045245;28;19929;-70
2023/06/09 00:45:25;;;;;;;;;;;;;;;14.74;70.31;99710.25;5044911;28;19970;-70
2023/06/09 00:47:51;;;;;;;;;;;;;;;14.70;70.79;99706.44;5043178;28;20384;-71
2023/06/09 00:50:19;;;;;;;;;;;;;;;14.65;70.83;99696.34;5036799;28;19929;-72
2023/06/09 00:52:45;;;;;;;;;;;;;;;14.50;71.00;99677.38;5044318;28;20007;-71
2023/06/09 00:55:13;;;;;;;;;;;;;;;14.54;70.98;99687.47;5045020;28;19929;-72
2023/06/09 00:57:39;;;;;;;;;;;;;;;14.53;71.29;99696.03;5043951;28;19928;-71
2023/06/09 01:00:06;;;;;;;;;;;;;;;14.44;71.74;99691.25;5026282;28;19924;-71
2023/06/09 01:02:32;;;;;;;;;;;;;;;14.41;71.87;99685.53;5046976;28;19925;-70
2023/06/09 01:04:58;;;;;;;;;;;;;;;14.39;72.16;99696.03;5044776;28;20062;-71
2023/06/09 01:07:30;;;;;;;;;;;;;;;14.29;72.43;99691.53;5033189;28;19983;-71
2023/06/09 01:10:01;;;;;;;;;;;;;;;14.25;72.74;99691.31;5046992;28;19925;-72
2023/06/09 01:12:34;;;;;;;;;;;;;;;14.22;73.06;99694.66;5025370;28;19991;-71
2023/06/09 01:15:03;;;;;;;;;;;;;;;14.22;73.18;99686.41;5031463;28;19925;-71
2023/06/09 01:17:32;;;;;;;;;;;;;;;14.23;73.17;99690.78;5044430;28;19925;-70
2023/06/09 01:20:05;;;;;;;;;;;;;;;14.23;73.20;99699.03;5045934;28;20023;-71
2023/06/09 01:22:37;;;;;;;;;;;;;;;14.18;73.19;99694.44;5006183;28;19975;-71
2023/06/09 01:25:10;;;;;;;;;;;;;;;14.15;73.28;99689.56;5026071;28;19956;-70
2023/06/09 01:27:39;;;;;;;;;;;;;;;14.16;73.18;99690.34;5022934;28;19932;-70
2023/06/09 01:30:06;;;;;;;;;;;;;;;14.14;73.30;99693.41;5040143;28;19964;-71
2023/06/09 01:32:33;;;;;;;;;;;;;;;14.14;73.38;99690.66;5058806;28;19924;-71
2023/06/09 01:34:58;;;;;;;;;;;;;;;14.08;73.48;99680.06;5043648;28;20375;-72
2023/06/09 01:37:25;;;;;;;;;;;;;;;14.16;73.50;99696.69;5047324;28;19931;-71
2023/06/09 01:39:51;;;;;;;;;;;;;;;14.17;73.46;99702.97;5044726;28;20027;-70
2023/06/09 01:42:17;;;;;;;;;;;;;;;14.15;73.68;99696.97;5041458;28;20059;-72
2023/06/09 01:44:45;;;;;;;;;;;;;;;14.14;73.88;99698.09;5005781;28;19960;-72
2023/06/09 01:47:12;;;;;;;;;;;;;;;14.17;73.58;99689.22;5033476;28;19932;-72
2023/06/09 01:49:44;;;;;;;;;;;;;;;14.21;73.46;99694.94;5026024;28;20423;-71
2023/06/09 01:52:14;;;;;;;;;;;;;;;14.19;73.63;99695.25;5042661;28;19925;-72
2023/06/09 01:54:43;;;;;;;;;;;;;;;14.14;73.63;99690.66;5038028;28;19925;-71
2023/06/09 01:57:14;;;;;;;;;;;;;;;14.18;73.52;99688.94;5021181;28;20420;-71
2023/06/09 01:59:44;;;;;;;;;;;;;;;14.24;73.53;99689.66;5034143;28;20419;-72
2023/06/09 02:02:12;;;;;;;;;;;;;;;14.22;73.33;99691.09;5057644;28;19925;-72
2023/06/09 02:04:39;;;;;;;;;;;;;;;14.19;73.33;99687.00;5024758;28;19960;-72
2023/06/09 02:07:05;;;;;;;;;;;;;;;14.18;73.33;99688.13;5014058;28;20406;-71
2023/06/09 02:09:32;;;;;;;;;;;;;;;14.20;73.36;99688.63;5044124;28;19928;-72
2023/06/09 02:12:00;;;;;;;;;;;;;;;14.21;73.11;99684.78;5025961;28;19925;-71
2023/06/09 02:14:32;;;;;;;;;;;;;;;14.28;72.93;99687.09;5057130;28;19925;-72
2023/06/09 02:16:58;;;;;;;;;;;;;;;14.36;72.68;99686.44;5022179;28;20024;-71
2023/06/09 02:19:30;;;;;;;;;;;;;;;14.38;72.53;99691.63;5039871;28;20323;-71
2023/06/09 02:21:56;;;;;;;;;;;;;;;14.38;72.73;99691.63;5042079;28;19924;-71
2023/06/09 02:24:22;;;;;;;;;;;;;;;14.39;72.51;99694.06;5040608;28;19936;-72
2023/06/09 02:26:49;;;;;;;;;;;;;;;14.43;72.49;99686.03;5029588;28;19978;-72
2023/06/09 02:29:15;;;;;;;;;;;;;;;14.46;72.26;99686.25;5040950;28;19930;-71
2023/06/09 02:31:41;;;;;;;;;;;;;;;14.50;71.99;99686.44;5040724;28;20304;-72
2023/06/09 02:34:06;;;;;;;;;;;;;;;14.53;72.01;99687.78;5025820;28;20002;-72
2023/06/09 02:36:37;;;;;;;;;;;;;;;14.58;71.79;99693.16;5040721;28;19924;-71
2023/06/09 02:39:05;;;;;;;;;;;;;;;14.64;71.69;99691.13;5056571;28;19924;-72
2023/06/09 02:41:31;;;;;;;;;;;;;;;14.70;71.30;99687.19;5057796;28;20042;-72
2023/06/09 02:43:57;;;;;;;;;;;;;;;14.76;71.31;99679.69;5040531;28;19925;-71
2023/06/09 02:46:23;;;;;;;;;;;;;;;14.82;71.07;99670.97;5039601;28;19940;-71
2023/06/09 02:48:48;;;;;;;;;;;;;;;14.92;70.77;99691.19;5028032;28;19979;-71
2023/06/09 02:51:15;;;;;;;;;;;;;;;14.97;70.46;99683.63;5039963;28;19928;-71
2023/06/09 02:53:42;;;;;;;;;;;;;;;15.06;69.99;99685.66;5042771;28;19925;-70
2023/06/09 02:56:10;;;;;;;;;;;;;;;15.15;69.82;99686.56;5041507;28;19978;-70
2023/06/09 02:58:43;;;;;;;;;;;;;;;15.24;69.26;99686.66;5040708;28;20039;-70
2023/06/09 03:01:11;;;;;;;;;;;;;;;15.32;68.69;99689.47;5040873;28;20491;-70
2023/06/09 03:03:38;;;;;;;;;;;;;;;15.43;68.59;99681.00;5034671;28;19925;-70
2023/06/09 03:06:07;;;;;;;;;;;;;;;15.59;67.93;99684.19;5037297;28;19940;-70
2023/06/09 03:08:33;;;;;;;;;;;;;;;15.78;67.40;99686.00;5025752;28;19986;-68
2023/06/09 03:11:01;;;;;;;;;;;;;;;16.00;66.44;99683.25;5041603;28;20399;-70
2023/06/09 03:13:28;;;;;;;;;;;;;;;16.12;65.89;99668.09;5025271;28;19970;-72
2023/06/09 03:15:55;;;;;;;;;;;;;;;16.26;65.49;99665.22;5056610;28;20370;-71
2023/06/09 03:18:22;;;;;;;;;;;;;;;16.30;65.26;99666.22;5040866;28;19949;-72
2023/06/09 03:20:50;;;;;;;;;;;;;;;16.45;64.84;99678.81;5040802;28;20372;-71
2023/06/09 03:23:16;;;;;;;;;;;;;;;16.60;64.68;99677.56;5040548;28;19940;-72
2023/06/09 03:25:42;;;;;;;;;;;;;;;16.64;63.96;99686.84;5040249;28;19970;-71
2023/06/09 03:28:13;;;;;;;;;;;;;;;16.54;64.12;99682.41;5040863;28;19933;-70
2023/06/09 03:30:40;;;;;;;;;;;;;;;16.49;64.40;99679.00;5040841;28;20399;-70
2023/06/09 03:33:06;;;;;;;;;;;;;;;16.41;64.79;99677.81;5040015;28;19929;-71
2023/06/09 03:35:32;;;;;;;;;;;;;;;16.29;64.76;99681.97;5038368;28;20358;-72
2023/06/09 03:37:58;;;;;;;;;;;;;;;16.14;65.13;99669.38;5040084;28;19954;-71
2023/06/09 03:40:24;;;;;;;;;;;;;;;15.98;65.85;99682.75;5037125;28;19975;-72
2023/06/09 03:42:50;;;;;;;;;;;;;;;15.85;66.17;99680.84;5038038;28;19925;-72
2023/06/09 03:45:18;;;;;;;;;;;;;;;15.78;66.80;99678.53;5035936;28;19956;-72
2023/06/09 03:47:44;;;;;;;;;;;;;;;15.85;66.68;99683.59;5040057;28;20442;-75
2023/06/09 03:50:10;;;;;;;;;;;;;;;16.00;66.22;99669.47;5039898;28;20170;-73
2023/06/09 03:52:36;;;;;;;;;;;;;;;16.20;65.67;99681.09;5041606;28;20381;-71
2023/06/09 03:55:02;;;;;;;;;;;;;;;16.37;65.44;99680.38;5041679;28;19956;-71
2023/06/09 03:57:32;;;;;;;;;;;;;;;16.50;64.71;99677.84;5038642;28;19974;-73
2023/06/09 03:59:58;;;;;;;;;;;;;;;16.60;64.28;99674.78;5041811;28;19925;-72
2023/06/09 04:02:27;;;;;;;;;;;;;;;16.70;63.93;99680.03;5025372;28;20599;-71
2023/06/09 04:04:53;;;;;;;;;;;;;;;16.77;63.85;99690.63;5041317;28;19924;-71
2023/06/09 04:07:19;;;;;;;;;;;;;;;16.78;63.80;99683.97;5043266;28;19924;-72
2023/06/09 04:09:44;;;;;;;;;;;;;;;16.77;63.78;99679.56;5058374;28;19925;-72
2023/06/09 04:12:10;;;;;;;;;;;;;;;16.84;63.58;99690.97;5025463;28;20028;-72
2023/06/09 04:14:36;;;;;;;;;;;;;;;16.94;62.97;99683.53;5034185;28;20205;-73
2023/06/09 04:17:03;;;;;;;;;;;;;;;16.97;62.98;99691.16;5055875;28;19983;-72
2023/06/09 04:19:31;;;;;;;;;;;;;;;17.00;62.71;99694.13;5056905;28;19931;-72
2023/06/09 04:22:01;;;;;;;;;;;;;;;17.09;62.71;99696.09;5023357;28;20380;-72
2023/06/09 04:24:27;;;;;;;;;;;;;;;17.11;62.10;99694.66;5039583;28;19924;-72
2023/06/09 04:26:53;;;;;;;;;;;;;;;17.14;61.98;99705.03;5039833;28;19931;-71
2023/06/09 04:29:22;;;;;;;;;;;;;;;17.16;61.96;99701.97;5039898;28;19924;-73
2023/06/09 04:31:53;;;;;;;;;;;;;;;17.13;61.89;99703.41;5040903;28;20257;-71
2023/06/09 04:34:19;;;;;;;;;;;;;;;17.26;61.84;99704.44;5035020;28;19925;-71
2023/06/09 04:36:48;;;;;;;;;;;;;;;17.40;61.32;99696.00;5034920;28;19925;-70
2023/06/09 04:39:16;;;;;;;;;;;;;;;17.53;60.47;99698.94;5059773;28;19932;-72
2023/06/09 04:41:44;;;;;;;;;;;;;;;17.67;59.55;99701.53;5045753;28;19979;-72
2023/06/09 04:44:10;;;;;;;;;;;;;;;17.77;58.91;99692.09;5044994;28;19932;-72
2023/06/09 04:46:41;;;;;;;;;;;;;;;17.84;58.19;99697.97;5045004;28;19925;-72
2023/06/09 04:49:11;;;;;;;;;;;;;;;17.93;57.88;99703.50;5045359;28;19924;-73
2023/06/09 04:51:46;;;;;;;;;;;;;;;17.97;57.18;99696.16;5009725;28;19990;-72
2023/06/09 04:54:16;;;;;;;;;;;;;;;18.06;56.97;99698.94;5043826;28;19932;-71
2023/06/09 04:56:43;;;;;;;;;;;;;;;18.13;56.84;99693.72;5044049;28;19931;-72
2023/06/09 04:59:09;;;;;;;;;;;;;;;18.17;56.46;99691.09;5043587;28;19925;-71
2023/06/09 05:01:37;;;;;;;;;;;;;;;18.23;56.31;99696.13;5059895;28;19947;-72
2023/06/09 05:04:03;;;;;;;;;;;;;;;18.29;56.18;99694.00;5021814;28;19940;-71
2023/06/09 05:06:29;;;;;;;;;;;;;;;18.40;55.83;99697.22;5022098;28;19924;-72
2023/06/09 05:08:57;;;;;;;;;;;;;;;18.47;55.33;99693.94;5005759;28;19925;-72
2023/06/09 05:11:24;;;;;;;;;;;;;;;18.56;55.10;99690.00;5019661;28;19929;-72
2023/06/09 05:13:50;;;;;;;;;;;;;;;18.70;54.46;99686.22;5027010;28;19971;-72
2023/06/09 05:16:16;;;;;;;;;;;;;;;18.84;54.27;99686.00;5029031;28;19994;-72
2023/06/09 05:18:42;;;;;;;;;;;;;;;19.03;53.26;99685.56;5012278;28;19928;-71
2023/06/09 05:21:12;;;;;;;;;;;;;;;19.22;52.12;99689.88;5040375;28;20372;-72
2023/06/09 05:23:37;;;;;;;;;;;;;;;19.28;51.99;99685.75;5037754;28;20027;-71
2023/06/09 05:26:04;;;;;;;;;;;;;;;19.26;52.14;99691.63;5023470;28;19935;-72
2023/06/09 05:28:31;;;;;;;;;;;;;;;19.25;52.50;99689.22;5039164;28;19924;-70
2023/06/09 05:30:57;;;;;;;;;;;;;;;19.18;52.24;99684.19;5040202;28;20396;-71
2023/06/09 05:33:23;;;;;;;;;;;;;;;19.14;52.15;99680.47;5040821;28;19929;-72
2023/06/09 05:35:50;;;;;;;;;;;;;;;19.15;52.31;99678.50;5037465;28;19929;-72
2023/06/09 05:38:18;;;;;;;;;;;;;;;19.24;52.06;99682.03;5004343;28;19925;-72
2023/06/09 05:40:44;;;;;;;;;;;;;;;19.30;51.30;99686.22;5038318;28;20476;-71
2023/06/09 05:43:10;;;;;;;;;;;;;;;19.37;51.16;99680.16;5040617;28;19925;-71
2023/06/09 05:45:37;;;;;;;;;;;;;;;19.44;50.92;99690.69;5022457;28;20043;-71
2023/06/09 05:48:03;;;;;;;;;;;;;;;19.49;50.63;99685.78;4680886;28;10000155;-71
2023/06/09 05:50:29;;;;;;;;;;;;;;;19.58;50.68;99704.28;5019660;28;19964;-72
2023/06/09 05:52:55;;;;;;;;;;;;;;;19.62;49.92;99691.38;5028982;28;20002;-71
2023/06/09 05:55:20;;;;;;;;;;;;;;;19.68;49.54;99690.03;5029567;28;20388;-70
2023/06/09 05:57:46;;;;;;;;;;;;;;;19.69;49.47;99689.69;5034695;28;20030;-71
2023/06/09 06:00:13;;;;;;;;;;;;;;;19.81;48.50;99686.16;5037524;28;19958;-71
2023/06/09 06:02:40;;;;;;;;;;;;;;;19.86;47.34;99681.53;5033409;28;20319;-71
2023/06/09 06:05:06;;;;;;;;;;;;;;;19.90;46.47;99685.25;5040417;28;19931;-72
2023/06/09 06:07:35;;;;;;;;;;;;;;;19.89;45.37;99683.63;5044474;28;19960;-72
2023/06/09 06:10:01;;;;;;;;;;;;;;;19.95;45.34;99685.88;5039416;28;19987;-71
2023/06/09 06:12:26;;;;;;;;;;;;;;;20.04;43.97;99693.31;5032801;28;19929;-71
2023/06/09 06:14:52;;;;;;;;;;;;;;;20.06;44.09;99677.16;5040833;28;19929;-71
2023/06/09 06:17:21;;;;;;;;;;;;;;;20.21;43.98;99686.78;5033764;28;19925;-72
2023/06/09 06:19:50;;;;;;;;;;;;;;;20.34;42.58;99679.31;5023961;28;19924;-71
2023/06/09 06:22:15;;;;;;;;;;;;;;;20.49;41.64;99681.41;5041476;28;19931;-70
2023/06/09 06:24:41;;;;;;;;;;;;;;;20.67;40.96;99675.63;5030225;28;19925;-71
2023/06/09 06:27:08;;;;;;;;;;;;;;;20.85;40.52;99676.25;5042864;28;19928;-71
2023/06/09 06:29:34;;;;;;;;;;;;;;;20.97;38.28;99672.66;5043545;28;19925;-71
2023/06/09 06:32:00;;;;;;;;;;;;;;;20.98;37.74;99671.50;5006762;28;19916;-71
2023/06/09 06:34:26;;;;;;;;;;;;;;;20.93;37.68;99675.31;5023452;28;19924;-71
2023/06/09 06:36:56;;;;;;;;;;;;;;;21.02;36.87;99672.41;5041094;28;19950;-71
2023/06/09 06:39:22;;;;;;;;;;;;;;;21.08;37.09;99668.25;5031551;28;20408;-69
2023/06/09 06:41:48;;;;;;;;;;;;;;;21.14;36.97;99677.13;5039663;28;19983;-69
2023/06/09 06:44:14;;;;;;;;;;;;;;;21.21;37.17;99679.31;5033259;28;19928;-69
2023/06/09 06:46:41;;;;;;;;;;;;;;;21.29;37.25;99661.72;5029553;28;19931;-71
2023/06/09 06:49:06;;;;;;;;;;;;;;;21.41;36.29;99666.44;5021083;28;19925;-70
2023/06/09 06:51:32;;;;;;;;;;;;;;;21.40;36.28;99662.03;5025005;28;20354;-70
2023/06/09 06:54:00;;;;;;;;;;;;;;;21.49;34.96;99675.78;5013944;28;20271;-70
2023/06/09 06:56:26;;;;;;;;;;;;;;;21.54;35.78;99673.59;5051677;28;19929;-69
2023/06/09 06:58:52;;;;;;;;;;;;;;;21.62;35.12;99665.44;5043844;28;19965;-69
2023/06/09 07:01:20;;;;;;;;;;;;;;;21.71;35.15;99666.13;5039568;28;19967;-70
2023/06/09 07:03:46;;;;;;;;;;;;;;;21.72;34.09;99656.63;5036824;28;19931;-70
2023/06/09 07:06:12;;;;;;;;;;;;;;;21.66;33.15;99666.41;5041874;28;19924;-70
2023/06/09 07:08:38;;;;;;;;;;;;;;;21.69;32.92;99657.34;5040091;28;20149;-70
2023/06/09 07:11:05;;;;;;;;;;;;;;;21.81;33.63;99660.06;5040887;28;19924;-70
2023/06/09 07:13:31;;;;;;;;;;;;;;;21.97;34.18;99659.31;5041848;28;19925;-71
2023/06/09 07:16:00;;;;;;;;;;;;;;;22.17;33.88;99673.34;5040517;28;19986;-70
2023/06/09 07:18:26;;;;;;;;;;;;;;;22.28;32.98;99654.13;5043670;28;19932;-70
2023/06/09 07:20:52;;;;;;;;;;;;;;;22.45;32.45;99666.91;5042602;28;19956;-70
2023/06/09 07:23:18;;;;;;;;;;;;;;;22.53;32.09;99671.50;5045754;28;19955;-70
2023/06/09 07:25:44;;;;;;;;;;;;;;;22.59;31.43;99667.31;5038704;28;20307;-69
2023/06/09 07:28:11;;;;;;;;;;;;;;;22.67;30.74;99666.28;5040126;28;20453;-69
2023/06/09 07:30:37;;;;;;;;;;;;;;;22.69;30.46;99653.97;5056884;28;19924;-71
2023/06/09 07:33:04;;;;;;;;;;;;;;;22.66;29.86;99669.47;5042067;28;19932;-71
2023/06/09 07:35:30;;;;;;;;;;;;;;;22.74;29.77;99659.31;5039034;28;20008;-71
2023/06/09 07:37:56;;;;;;;;;;;;;;;22.87;29.94;99660.00;5040848;28;19929;-70
2023/06/09 07:40:22;;;;;;;;;;;;;;;22.91;28.89;99675.63;5029367;28;19956;-71
2023/06/09 07:42:48;;;;;;;;;;;;;;;22.91;28.29;99658.09;5030960;28;19925;-72
2023/06/09 07:45:16;;;;;;;;;;;;;;;23.06;27.96;99667.59;5026388;28;20419;-72
2023/06/09 07:47:41;;;;;;;;;;;;;;;23.04;27.75;99670.75;5039736;28;20406;-70
2023/06/09 07:50:08;;;;;;;;;;;;;;;23.11;28.29;99678.47;5043702;28;19924;-71
2023/06/09 07:52:36;;;;;;;;;;;;;;;23.11;27.24;99669.31;5034356;28;20027;-71
2023/06/09 07:55:02;;;;;;;;;;;;;;;23.07;27.30;99661.66;5024698;28;20400;-71
2023/06/09 07:57:29;;;;;;;;;;;;;;;23.09;27.60;99676.03;5033330;28;20264;-72
2023/06/09 07:59:55;;;;;;;;;;;;;;;23.17;27.34;99674.22;5008876;28;20392;-71
2023/06/09 08:02:22;;;;;;;;;;;;;;;23.25;26.98;99680.75;5022555;28;19924;-71
2023/06/09 08:04:48;;;;;;;;;;;;;;;23.41;26.91;99677.16;5041251;28;19925;-71
2023/06/09 08:07:14;;;;;;;;;;;;;;;23.65;27.06;99688.03;5041818;28;20355;-71
2023/06/09 08:09:40;;;;;;;;;;;;;;;23.89;26.54;99668.56;5044199;28;20019;-72
2023/06/09 08:12:06;;;;;;;;;;;;;;;24.17;26.59;99675.91;5044272;28;20027;-72
2023/06/09 08:14:32;;;;;;;;;;;;;;;24.54;25.03;99685.75;5041678;28;19931;-71
2023/06/09 08:16:58;;;;;;;;;;;;;;;24.75;24.22;99686.09;5044443;28;19971;-70
2023/06/09 08:19:28;;;;;;;;;;;;;;;24.88;23.26;99697.09;5046719;28;19960;-71
2023/06/09 08:21:53;;;;;;;;;;;;;;;24.76;23.27;99686.94;5047496;28;20023;-71
2023/06/09 08:24:24;;;;;;;;;;;;;;;24.85;23.65;99690.25;5046814;28;19988;-70
2023/06/09 08:26:51;;;;;;;;;;;;;;;24.93;23.05;99680.00;5029117;28;20298;-69
2023/06/09 08:29:18;;;;;;;;;;;;;;;25.01;23.13;99686.50;5042878;28;20198;-69
2023/06/09 08:31:44;;;;;;;;;;;;;;;25.07;23.43;99685.03;5043881;28;19924;-70
2023/06/09 08:34:10;;;;;;;;;;;;;;;25.39;22.92;99689.44;5045424;28;19931;-72
2023/06/09 08:36:38;;;;;;;;;;;;;;;25.64;22.46;99689.81;5042847;28;19935;-72
2023/06/09 08:39:04;;;;;;;;;;;;;;;25.72;22.32;99688.72;5039119;28;19977;-71
2023/06/09 08:41:32;;;;;;;;;;;;;;;25.66;21.90;99684.63;5043913;28;19924;-70
2023/06/09 08:43:58;;;;;;;;;;;;;;;25.66;22.06;99681.03;5041732;28;19925;-70
2023/06/09 08:46:25;;;;;;;;;;;;;;;25.94;22.23;99674.16;5042362;28;19924;-71
2023/06/09 08:48:54;;;;;;;;;;;;;;;26.38;21.43;99678.25;5045271;28;20015;-69
2023/06/09 08:51:25;;;;;;;;;;;;;;;26.23;20.98;99671.69;5047269;28;19924;-72
2023/06/09 08:53:52;;;;;;;;;;;;;;;26.01;20.85;99688.22;5048663;28;19929;-71
2023/06/09 08:56:19;;;;;;;;;;;;;;;26.22;20.77;99693.28;5047851;28;19931;-70
2023/06/09 08:58:48;;;;;;;;;;;;;;;26.63;20.38;99669.25;5046956;28;20453;-71
2023/06/09 09:01:14;;;;;;;;;;;;;;;26.93;20.19;99683.13;5046165;28;19947;-71
2023/06/09 09:03:41;;;;;;;;;;;;;;;27.20;20.20;99676.47;5047157;28;19928;-72
2023/06/09 09:06:08;;;;;;;;;;;;;;;26.78;20.20;99686.97;5027970;28;19978;-71
2023/06/09 09:08:34;;;;;;;;;;;;;;;26.73;20.37;99674.94;5046718;28;19929;-71
2023/06/09 09:11:02;;;;;;;;;;;;;;;27.15;20.44;99674.84;5040077;28;19929;-71
2023/06/09 09:13:33;;;;;;;;;;;;;;;27.81;20.34;99678.78;5042383;28;20299;-72
2023/06/09 09:16:00;;;;;;;;;;;;;;;28.48;19.34;99676.53;5044129;28;19935;-71
2023/06/09 09:18:29;;;;;;;;;;;;;;;29.11;18.53;99678.13;5042174;28;19928;-71
2023/06/09 09:20:55;;;;;;;;;;;;;;;29.57;18.45;99680.03;5010106;28;19931;-71
2023/06/09 09:23:27;;;;;;;;;;;;;;;29.72;17.86;99682.78;5039631;28;20179;-71
2023/06/09 09:25:54;;;;;;;;;;;;;;;29.25;18.19;99689.38;5041991;28;20303;-71
2023/06/09 09:28:21;;;;;;;;;;;;;;;28.95;18.20;99684.19;5032550;28;19929;-71
2023/06/09 09:30:48;;;;;;;;;;;;;;;28.99;18.73;99673.75;5027074;28;19932;-72
2023/06/09 09:33:15;;;;;;;;;;;;;;;29.20;17.95;99686.16;5030286;28;19964;-70
2023/06/09 09:35:43;;;;;;;;;;;;;;;29.45;17.87;99682.50;5041929;28;19924;-72
2023/06/09 09:38:14;;;;;;;;;;;;;;;30.07;17.55;99672.56;5058280;28;19960;-72
2023/06/09 09:40:41;;;;;;;;;;;;;;;29.92;17.48;99676.66;5030153;28;19982;-72
2023/06/09 09:43:08;;;;;;;;;;;;;;;30.00;17.38;99676.19;5062059;28;19925;-72
2023/06/09 09:45:37;;;;;;;;;;;;;;;30.24;17.02;99668.03;5045909;28;19925;-71
2023/06/09 09:48:08;;;;;;;;;;;;;;;30.62;16.93;99661.75;5043318;28;19924;-71
2023/06/09 09:50:34;;;;;;;;;;;;;;;30.46;16.74;99669.91;5040714;28;20023;-71
2023/06/09 09:53:02;;;;;;;;;;;;;;;30.05;17.39;99671.38;5042095;28;19924;-70
2023/06/09 09:55:28;;;;;;;;;;;;;;;30.64;17.33;99661.31;5045164;28;19925;-70
2023/06/09 09:57:54;;;;;;;;;;;;;;;31.68;16.13;99648.09;5040442;28;19931;-69
2023/06/09 10:00:20;;;;;;;;;;;;;;;32.16;15.54;99647.44;5044443;28;19928;-70
2023/06/09 10:02:50;;;;;;;;;;;;;;;32.80;14.65;99647.66;5043014;28;19959;-70
2023/06/09 10:05:17;;;;;;;;;;;;;;;33.38;14.35;99653.03;5040959;28;20033;-70
2023/06/09 10:07:45;;;;;;;;;;;;;;;33.43;13.57;99654.56;5043415;28;19978;-70
2023/06/09 10:10:11;;;;;;;;;;;;;;;32.48;14.67;99652.63;5043506;28;19931;-70
2023/06/09 10:12:37;;;;;;;;;;;;;;;32.60;14.12;99656.09;5062382;28;19928;-70
2023/06/09 10:15:04;;;;;;;;;;;;;;;32.60;14.91;99644.75;5046732;28;19929;-70
2023/06/09 10:17:31;;;;;;;;;;;;;;;32.58;15.25;99650.06;5046279;28;19971;-69
2023/06/09 10:19:59;;;;;;;;;;;;;;;32.69;14.78;99639.34;5042779;28;19928;-70
2023/06/09 10:22:24;;;;;;;;;;;;;;;32.61;15.19;99644.31;5041168;28;19924;-69
2023/06/09 10:24:52;;;;;;;;;;;;;;;32.24;15.43;99641.28;5045681;28;19997;-70
2023/06/09 10:27:18;;;;;;;;;;;;;;;32.28;15.20;99635.53;5046431;28;20015;-70
2023/06/09 10:29:47;;;;;;;;;;;;;;;33.03;14.71;99629.06;5043999;28;19925;-70
2023/06/09 10:32:13;;;;;;;;;;;;;;;34.21;14.17;99626.97;5042910;28;19964;-69
2023/06/09 10:34:46;;;;;;;;;;;;;;;33.82;14.03;99623.00;5045728;28;19964;-70
2023/06/09 10:37:27;;;;;;;;;;;;;;;31.54;15.86;99620.84;5044994;28;19929;-71
2023/06/09 10:40:03;;;;;;;;;;;;;;;31.20;16.38;99621.63;5042405;28;20501;-69
2023/06/09 10:42:32;;;;;;;;;;;;;;;31.90;15.83;99607.47;5041826;28;19924;-68
2023/06/09 10:45:02;;;;;;;;;;;;;;;32.80;15.12;99608.03;5069159;28;19975;-70
2023/06/09 10:47:50;;;;;;;;;;;;;;;33.88;14.87;99605.03;5039973;28;19925;-70
2023/06/09 10:50:23;;;;;;;;;;;;;;;34.58;13.84;99604.97;5033608;28;19928;-70
2023/06/09 10:52:54;;;;;;;;;;;;;;;34.40;13.51;99602.56;5042873;28;19924;-71
2023/06/09 10:55:24;;;;;;;;;;;;;;;34.74;13.66;99583.50;5037347;28;20454;-72
2023/06/09 10:57:51;;;;;;;;;;;;;;;32.90;15.20;99586.44;5041323;28;19924;-71
2023/06/09 11:00:18;;;;;;;;;;;;;;;32.65;15.41;99596.16;5041716;28;20123;-71
2023/06/09 11:02:44;;;;;;;;;;;;;;;32.39;15.86;99585.31;5039038;28;19928;-72
2023/06/09 11:05:11;;;;;;;;;;;;;;;32.88;15.55;99578.34;5037398;28;19994;-72
2023/06/09 11:07:41;;;;;;;;;;;;;;;33.61;15.05;99586.19;5036347;28;20015;-71
2023/06/09 11:10:34;;;;;;;;;;;;;;;34.33;14.61;99578.03;5030072;28;19952;-72
2023/06/09 11:13:03;;;;;;;;;;;;;;;32.76;15.66;99588.28;5035362;28;19929;-71
2023/06/09 11:15:47;;;;;;;;;;;;;;;32.00;16.00;99571.78;5040591;28;19931;-71
2023/06/09 11:18:16;;;;;;;;;;;;;;;32.62;15.27;99586.50;5040279;28;20059;-72
2023/06/09 11:20:42;;;;;;;;;;;;;;;33.00;15.14;99568.44;5040411;28;19925;-71
2023/06/09 11:23:08;;;;;;;;;;;;;;;32.22;15.79;99575.06;5037414;28;19974;-70
2023/06/09 11:25:34;;;;;;;;;;;;;;;31.87;15.88;99575.22;5045573;28;19925;-71
2023/06/09 11:28:18;;;;;;;;;;;;;;;32.75;15.21;99558.38;5042137;28;19924;-71
2023/06/09 11:30:58;;;;;;;;;;;;;;;33.71;14.25;99570.19;5042524;28;19924;-72
2023/06/09 11:33:39;;;;;;;;;;;;;;;34.14;13.73;99561.91;5038143;28;20015;-72
2023/06/09 11:36:05;;;;;;;;;;;;;;;34.22;13.76;99561.28;5039576;28;19952;-71
2023/06/09 11:38:31;;;;;;;;;;;;;;;32.66;15.09;99560.97;5037917;28;20461;-72
2023/06/09 11:40:57;;;;;;;;;;;;;;;33.42;14.35;99559.50;5039143;28;20431;-71
2023/06/09 11:43:25;;;;;;;;;;;;;;;33.26;14.34;99562.28;5040552;28;19971;-71
2023/06/09 11:45:59;;;;;;;;;;;;;;;33.83;14.37;99562.22;5036038;28;19931;-72
2023/06/09 11:48:25;;;;;;;;;;;;;;;33.60;14.37;99549.81;5045426;28;19924;-71
2023/06/09 11:50:51;;;;;;;;;;;;;;;33.85;14.03;99548.41;5040271;28;19943;-71
2023/06/09 11:53:17;;;;;;;;;;;;;;;34.73;13.73;99553.50;5039710;28;19925;-71
2023/06/09 11:55:43;;;;;;;;;;;;;;;34.62;13.31;99553.81;5042781;28;19959;-72
2023/06/09 11:58:09;;;;;;;;;;;;;;;33.50;14.10;99566.59;5014638;28;19969;-72
2023/06/09 12:00:38;;;;;;;;;;;;;;;32.40;15.26;99563.50;5041430;28;20058;-69
2023/06/09 12:03:09;;;;;;;;;;;;;;;30.21;17.21;99567.41;5045637;28;20047;-71
2023/06/09 12:05:35;;;;;;;;;;;;;;;28.62;18.42;99574.53;5023502;28;19925;-71
2023/06/09 12:08:01;;;;;;;;;;;;;;;28.16;18.66;99550.81;5045673;28;19924;-71
2023/06/09 12:10:28;;;;;;;;;;;;;;;28.38;18.43;99573.34;5038377;28;19928;-70
2023/06/09 12:12:55;;;;;;;;;;;;;;;27.98;23.20;99567.69;5034955;28;20023;-71
2023/06/09 12:15:22;;;;;;;;;;;;;;;27.13;26.28;99565.84;5034284;28;19924;-71
2023/06/09 12:17:50;;;;;;;;;;;;;;;25.97;28.80;99586.59;5041372;28;19925;-69
2023/06/09 12:20:19;;;;;;;;;;;;;;;26.72;28.76;99572.41;5043283;28;20375;-69
2023/06/09 12:22:45;;;;;;;;;;;;;;;28.24;27.17;99591.00;4686971;28;10000937;-69
2023/06/09 12:25:18;;;;;;;;;;;;;;;29.15;26.79;99603.75;5037307;28;19928;-70
2023/06/09 12:27:44;;;;;;;;;;;;;;;29.60;26.15;99576.25;5037441;28;19924;-70
2023/06/09 12:30:10;;;;;;;;;;;;;;;29.55;26.24;99597.19;5039293;28;19947;-70
2023/06/09 12:32:36;;;;;;;;;;;;;;;28.94;27.06;99618.69;5035088;28;20677;-70
2023/06/09 12:35:04;;;;;;;;;;;;;;;29.90;26.12;99629.19;5037910;28;20030;-71
2023/06/09 12:37:36;;;;;;;;;;;;;;;30.72;25.46;99622.56;5040132;28;19928;-70
2023/06/09 12:40:03;;;;;;;;;;;;;;;31.33;24.56;99621.94;5037393;28;19925;-70
2023/06/09 12:42:29;;;;;;;;;;;;;;;31.34;24.21;99625.53;5043410;28;19932;-72
2023/06/09 12:44:57;;;;;;;;;;;;;;;31.39;24.38;99648.47;5037677;28;19925;-71
2023/06/09 12:47:23;;;;;;;;;;;;;;;31.03;24.52;99637.56;5037597;28;19958;-69